Time;durP1;ratioP1;P1;durP2;ratioP2;P2;SDS_P1;SDS_P2;PMS_P1;PMS_P2;Temp;Humidity;BMP_temperature;BMP_pressure;BME280_temperature;BME280_humidity;BME280_pressure;Samples;Min_cycle;Max_cycle;Signal;HPM_P1;HPM_P2
2021/01/09 00:06:30;;;;;;;41.33;12.25;;;;;;;-1.61;89.03;99146.17;1721891;78;21188;31
2021/01/09 00:28:07;;;;;;;45.00;15.53;;;;;;;-1.41;90.27;99173.85;1731773;78;21246;31
2021/01/09 00:37:37;;;;;;;53.63;14.63;;;;;;;-1.34;91.09;99192.70;1741868;78;21286;31
2021/01/09 00:43:22;;;;;;;32.33;12.00;;;;;;;-1.33;89.97;99196.96;1711959;78;22491;31
2021/01/09 00:56:09;;;;;;;44.97;16.07;;;;;;;-1.39;91.31;99192.60;1706226;78;21380;31
2021/01/09 01:01:56;;;;;;;44.75;14.45;;;;;;;-1.14;91.40;99220.81;1706519;79;21159;-85
2021/01/09 01:14:20;;;;;;;57.78;18.48;;;;;;;-0.83;90.56;99222.81;1665474;81;21295;-81
2021/01/09 01:23:49;;;;;;;40.75;14.00;;;;;;;-0.75;90.13;99219.16;1731579;78;22424;31
2021/01/09 01:32:35;;;;;;;;;;;;;;;-0.62;89.82;99221.13;1733069;78;21314;-80
2021/01/09 01:41:51;;;;;;;41.53;13.78;;;;;;;-0.51;89.53;99226.49;1697629;78;21232;-81
2021/01/09 01:44:35;;;;;;;48.68;16.55;;;;;;;-0.51;89.49;99222.23;1697151;81;21402;-81
2021/01/09 01:47:03;;;;;;;45.30;13.20;;;;;;;-0.48;89.40;99222.71;1713408;78;21371;-80
2021/01/09 02:09:56;;;;;;;30.75;10.45;;;;;;;-0.69;88.66;99230.36;1686064;79;21289;31
2021/01/09 02:19:13;;;;;;;31.95;12.05;;;;;;;-0.65;89.28;99227.47;1725620;78;21218;-81
2021/01/09 02:44:32;;;;;;;19.40;7.75;;;;;;;-0.72;87.93;99244.75;1634340;83;21216;-81
2021/01/09 02:53:34;;;;;;;17.80;7.08;;;;;;;-0.89;87.32;99245.23;1660530;81;21287;-82
2021/01/09 03:23:11;;;;;;;29.12;9.65;;;;;;;-0.83;87.68;99258.55;1665387;82;21181;-83
2021/01/09 03:35:47;;;;;;;30.35;10.53;;;;;;;-0.84;87.50;99265.75;1708555;79;21132;31
2021/01/09 03:41:52;;;;;;;68.22;20.20;;;;;;;-0.94;87.91;99277.84;1708108;80;22420;31
2021/01/09 03:47:44;;;;;;;36.80;12.98;;;;;;;-0.97;87.71;99277.37;1737502;78;21294;-80
2021/01/09 04:16:15;;;;;;;29.12;11.33;;;;;;;-1.31;87.79;99312.25;1733008;78;21135;-80
2021/01/09 05:12:58;;;;;;;24.15;10.25;;;;;;;-1.08;87.88;99345.13;1715271;79;21328;-81
2021/01/09 05:32:26;;;;;;;29.25;10.65;;;;;;;-1.09;87.56;99367.66;1700200;81;21249;31
2021/01/09 05:54:55;;;;;;;36.20;10.48;;;;;;;-0.95;87.18;99387.16;1709091;81;21417;31
2021/01/09 05:57:39;;;;;;;23.98;8.48;;;;;;;-0.80;87.39;99401.56;1708674;78;21197;31
2021/01/09 06:00:11;;;;;;;29.40;11.50;;;;;;;-0.74;87.52;99405.55;1697445;80;21119;-80
2021/01/09 06:02:59;;;;;;;27.35;8.70;;;;;;;-0.73;87.35;99407.72;1680063;81;21158;-81
2021/01/09 06:05:48;;;;;;;35.45;12.68;;;;;;;-0.72;87.23;99410.28;1713122;80;21174;-80
2021/01/09 06:11:42;;;;;;;37.03;12.58;;;;;;;-0.68;86.99;99418.47;1706645;79;21415;-80
2021/01/09 06:30:51;;;;;;;32.65;11.75;;;;;;;-0.72;87.39;99440.92;1737373;79;21251;31
2021/01/09 06:39:40;;;;;;;35.35;12.55;;;;;;;-0.64;87.50;99452.22;1731257;80;21192;-82
2021/01/09 06:52:03;;;;;;;34.90;10.95;;;;;;;-0.39;87.53;99471.98;1710388;78;21273;31
2021/01/09 06:54:43;;;;;;;37.03;12.40;;;;;;;-0.37;87.00;99474.16;1702769;80;21315;-83
2021/01/09 06:57:16;;;;;;;34.50;11.85;;;;;;;-0.32;87.05;99487.04;1699411;81;21257;-79
2021/01/09 07:03:18;;;;;;;30.43;10.68;;;;;;;-0.30;86.43;99487.55;1746761;79;21134;-81
2021/01/09 07:05:50;;;;;;;34.18;12.07;;;;;;;-0.30;86.68;99490.50;1676697;80;21221;-81
2021/01/09 07:11:43;;;;;;;41.95;13.45;;;;;;;-0.19;86.46;99495.89;1725703;78;21313;-81
2021/01/09 07:17:15;;;;;;;42.58;14.83;;;;;;;-0.10;86.54;99502.09;1661790;82;22580;-78
2021/01/09 07:19:51;;;;;;;46.30;15.70;;;;;;;-0.07;85.91;99512.80;1703573;80;21232;31
2021/01/09 07:25:39;;;;;;;43.95;15.75;;;;;;;-0.13;85.28;99516.48;1700301;79;21264;31
2021/01/09 07:28:11;;;;;;;45.23;18.40;;;;;;;-0.13;85.75;99513.92;1733955;78;21149;-82
2021/01/09 07:31:13;;;;;;;44.33;16.57;;;;;;;-0.07;86.02;99518.77;1727587;79;21521;31
2021/01/09 07:33:44;;;;;;;36.25;13.88;;;;;;;-0.05;85.92;99526.47;1685421;84;21165;-82
2021/01/09 07:36:18;;;;;;;45.15;16.97;;;;;;;-0.02;85.84;99526.14;1716848;78;21507;31
2021/01/09 07:38:48;;;;;;;37.30;12.85;;;;;;;0.03;85.82;99527.94;1684200;80;21164;-83
2021/01/09 07:41:34;;;;;;;40.03;14.10;;;;;;;0.06;85.64;99526.33;1727496;78;21272;31
2021/01/09 07:44:20;;;;;;;32.73;11.80;;;;;;;0.12;85.79;99526.86;1652665;81;22967;31
2021/01/09 07:46:58;;;;;;;37.25;12.88;;;;;;;0.11;85.34;99528.56;1672324;80;21207;-82
2021/01/09 07:49:36;;;;;;;39.10;13.08;;;;;;;-0.11;85.47;99493.95;1667826;83;21673;-83
2021/01/09 07:52:07;;;;;;;35.43;13.95;;;;;;;0.15;85.00;99530.36;1721894;80;21258;-84
2021/01/09 07:57:45;;;;;;;36.68;12.90;;;;;;;0.26;84.92;99543.42;1677078;80;21178;-83
2021/01/09 08:00:33;;;;;;;40.98;17.40;;;;;;;0.32;84.34;99547.39;1686770;81;21312;31
2021/01/09 08:03:15;;;;;;;50.00;18.75;;;;;;;0.34;84.30;99549.58;1614134;83;21328;31
2021/01/09 08:06:02;;;;;;;56.40;20.30;;;;;;;0.27;84.08;99556.64;1653297;81;21256;31
2021/01/09 08:08:44;;;;;;;41.80;16.63;;;;;;;0.19;84.04;99560.29;1659926;82;21235;31
2021/01/09 08:11:12;;;;;;;50.63;18.27;;;;;;;0.16;83.93;99567.02;1619427;81;21250;-80
2021/01/09 08:18:46;;;;;;;45.78;17.00;;;;;;;0.01;83.63;99570.08;1649751;82;21296;31
2021/01/09 08:21:24;;;;;;;45.63;16.87;;;;;;;-0.03;84.07;99565.72;1645854;81;21288;31
2021/01/09 08:23:59;;;;;;;44.53;15.30;;;;;;;0.02;84.42;99567.98;1729765;78;21260;31
2021/01/09 08:26:35;;;;;;;51.03;18.70;;;;;;;0.05;84.16;99561.66;1712617;78;21275;31
2021/01/09 08:29:16;;;;;;;49.05;16.05;;;;;;;0.11;83.91;99570.75;1709625;78;21383;31
2021/01/09 08:31:52;;;;;;;45.65;18.65;;;;;;;0.15;83.72;99572.55;1698302;80;22928;31
2021/01/09 08:34:30;;;;;;;48.20;15.67;;;;;;;0.15;83.99;99578.94;1724119;79;21626;31
2021/01/09 08:37:19;;;;;;;47.65;17.40;;;;;;;0.25;84.01;99581.73;1703387;79;21559;31
2021/01/09 08:40:06;;;;;;;44.65;14.80;;;;;;;0.31;83.20;99581.88;1701431;79;21257;31
2021/01/09 08:46:18;;;;;;;44.70;15.60;;;;;;;0.38;82.98;99587.19;1729504;78;21354;31
2021/01/09 08:48:46;;;;;;;66.12;23.47;;;;;;;0.47;83.04;99590.36;1717938;78;21251;-81
2021/01/09 08:51:15;;;;;;;150.70;45.55;;;;;;;0.53;83.08;99589.22;1704942;81;21335;-80
2021/01/09 08:56:56;;;;;;;41.13;15.43;;;;;;;0.73;83.33;99578.58;1647331;84;21177;-80
2021/01/09 08:59:26;;;;;;;47.03;17.37;;;;;;;0.74;82.49;99581.17;1662902;81;21319;31
2021/01/09 09:08:35;;;;;;;26.37;11.75;;;;;;;0.83;81.24;99565.14;1712145;79;21217;-81
2021/01/09 09:11:04;;;;;;;39.48;16.32;;;;;;;0.87;80.61;99564.80;1682268;81;21324;-84
2021/01/09 09:13:33;;;;;;;33.15;12.35;;;;;;;0.91;80.81;99568.73;1720064;80;21213;-84
2021/01/09 09:22:47;;;;;;;44.48;15.55;;;;;;;0.77;80.09;99562.03;1738684;79;22273;-83
2021/01/09 09:25:35;;;;;;;31.65;12.95;;;;;;;0.73;81.05;99565.36;1746147;79;21223;31
2021/01/09 09:28:04;;;;;;;35.52;14.07;;;;;;;0.72;80.31;99560.23;1759463;80;21328;-81
2021/01/09 09:30:32;;;;;;;34.95;14.33;;;;;;;0.78;80.57;99556.52;1749588;78;21332;-82
2021/01/09 09:36:24;;;;;;;36.40;12.30;;;;;;;0.94;81.02;99561.13;1711426;82;21762;-86
2021/01/09 09:38:52;;;;;;;40.63;19.20;;;;;;;1.06;80.37;99563.51;1687604;82;21352;-88
2021/01/09 09:41:20;;;;;;;43.60;18.52;;;;;;;1.12;80.16;99556.80;1702390;81;21206;-82
2021/01/09 09:43:59;;;;;;;52.38;23.02;;;;;;;1.21;80.51;99557.81;1699105;82;21362;-83
2021/01/09 09:46:28;;;;;;;45.70;19.30;;;;;;;1.26;79.81;99558.78;1708444;81;21211;-89
2021/01/09 09:49:00;;;;;;;35.25;15.53;;;;;;;1.10;77.67;99553.77;1658706;83;21165;-80
2021/01/09 09:51:34;;;;;;;34.40;16.20;;;;;;;1.14;79.04;99555.56;1665959;83;21348;-83
2021/01/09 09:54:02;;;;;;;27.75;10.82;;;;;;;1.25;80.33;99555.76;1686115;79;21314;-83
2021/01/09 09:56:40;;;;;;;29.92;13.08;;;;;;;1.20;79.98;99548.00;1696713;81;21161;-81
2021/01/09 09:59:10;;;;;;;26.73;10.55;;;;;;;1.16;79.78;99539.38;1706724;81;21287;-82
2021/01/09 10:01:38;;;;;;;30.17;12.45;;;;;;;1.10;79.22;99539.69;1691441;82;21315;-85
2021/01/09 10:04:11;;;;;;;35.60;13.83;;;;;;;1.14;79.00;99543.61;1704580;81;21177;-86
2021/01/09 10:06:41;;;;;;;35.83;15.35;;;;;;;1.19;79.24;99542.41;1696478;81;21294;-80
2021/01/09 10:09:19;;;;;;;33.10;14.13;;;;;;;1.13;78.94;99540.59;1696403;82;21274;-81
2021/01/09 10:11:54;;;;;;;24.85;10.75;;;;;;;1.02;77.06;99543.37;1800117;79;23947;-83
2021/01/09 10:14:23;;;;;;;56.08;26.33;;;;;;;0.92;78.60;99535.91;1753275;78;21202;-83
2021/01/09 10:16:51;;;;;;;40.12;14.43;;;;;;;0.85;78.36;99538.30;1765806;80;21155;-87
2021/01/09 10:19:19;;;;;;;45.35;19.57;;;;;;;0.77;78.48;99539.00;1767867;80;21285;-82
2021/01/09 10:21:47;;;;;;;29.12;12.60;;;;;;;0.75;79.11;99535.96;1766868;80;21291;-85
2021/01/09 10:24:15;;;;;;;31.55;14.58;;;;;;;0.65;79.23;99538.73;1768809;80;21272;-82
2021/01/09 10:26:43;;;;;;;50.03;24.10;;;;;;;0.61;78.73;99531.83;1760387;80;21322;-86
2021/01/09 10:29:12;;;;;;;42.00;16.35;;;;;;;0.66;78.99;99524.27;1769829;77;21351;-80
2021/01/09 10:31:40;;;;;;;32.15;12.15;;;;;;;0.72;79.89;99520.14;1771275;80;21304;-81
2021/01/09 10:34:09;;;;;;;36.83;13.15;;;;;;;0.62;79.65;99518.61;1779884;79;21237;-84
2021/01/09 10:36:40;;;;;;;30.50;12.82;;;;;;;0.51;79.87;99510.29;1772406;77;21287;31
2021/01/09 10:39:14;;;;;;;36.70;11.88;;;;;;;0.53;79.62;99512.46;1744577;77;21716;31
2021/01/09 10:41:42;;;;;;;27.60;11.05;;;;;;;0.53;79.66;99503.51;1765843;77;21303;-80
2021/01/09 10:44:13;;;;;;;27.50;11.67;;;;;;;0.55;80.26;99504.41;1779340;78;21354;31
2021/01/09 10:46:47;;;;;;;36.73;16.02;;;;;;;0.58;79.89;99507.05;1733027;78;21303;31
2021/01/09 10:49:17;;;;;;;39.10;19.27;;;;;;;0.67;80.46;99508.92;1727464;80;21279;-85
2021/01/09 10:51:45;;;;;;;51.05;22.30;;;;;;;0.77;80.90;99505.72;1729376;82;21156;-86
2021/01/09 10:54:13;;;;;;;49.27;18.60;;;;;;;0.87;80.85;99504.64;1724591;82;21173;-85
2021/01/09 10:56:45;;;;;;;45.08;19.65;;;;;;;0.88;80.33;99505.11;1732567;82;21168;-85
2021/01/09 10:59:13;;;;;;;30.23;12.80;;;;;;;0.90;80.43;99499.17;1696029;80;21133;-81
2021/01/09 11:01:41;;;;;;;32.17;12.50;;;;;;;0.96;80.48;99503.14;1700130;84;21149;-81
2021/01/09 11:04:09;;;;;;;22.82;9.63;;;;;;;0.95;79.03;99506.94;1699997;84;21760;-84
2021/01/09 11:06:37;;;;;;;36.08;15.40;;;;;;;0.94;79.01;99507.79;1698442;83;21835;-82
2021/01/09 11:09:05;;;;;;;73.80;24.70;;;;;;;0.85;79.16;99505.88;1704066;80;21219;-84
2021/01/09 11:11:33;;;;;;;43.73;15.20;;;;;;;0.79;78.90;99511.73;1697043;84;21189;-83
2021/01/09 11:14:01;;;;;;;31.90;13.53;;;;;;;0.79;79.11;99498.08;1704230;84;21287;-82
2021/01/09 11:16:29;;;;;;;27.10;10.65;;;;;;;0.84;79.40;99499.05;1689901;84;21162;-85
2021/01/09 11:18:57;;;;;;;31.77;14.07;;;;;;;0.82;78.78;99506.23;1703420;80;21165;-81
2021/01/09 11:21:25;;;;;;;25.32;10.58;;;;;;;0.82;79.05;99515.19;1692873;84;21307;-81
2021/01/09 11:23:53;;;;;;;25.08;10.08;;;;;;;0.81;79.37;99517.32;1699948;82;21728;-81
2021/01/09 11:26:26;;;;;;;27.65;10.80;;;;;;;0.69;79.16;99524.32;1701806;80;21303;-81
2021/01/09 11:28:55;;;;;;;;;;;;;;;0.70;79.96;99524.36;1695632;81;21323;-81
2021/01/09 11:31:24;;;;;;;23.65;10.13;;;;;;;0.68;79.47;99520.05;1677071;83;20200;-84
2021/01/09 11:33:52;;;;;;;17.77;8.38;;;;;;;0.64;79.54;99525.51;1675173;84;21319;-85
2021/01/09 11:36:23;;;;;;;27.13;10.90;;;;;;;0.56;78.90;99524.06;1726241;77;21140;-81
2021/01/09 11:38:50;;;;;;;21.27;10.20;;;;;;;0.52;79.27;99521.41;1713006;82;21337;-82
2021/01/09 11:41:19;;;;;;;22.30;9.53;;;;;;;0.48;79.84;99528.53;1712884;81;21805;-82
2021/01/09 11:43:47;;;;;;;24.18;9.88;;;;;;;0.38;79.86;99528.77;1713710;81;21265;-82
2021/01/09 11:46:15;;;;;;;19.95;8.80;;;;;;;0.35;80.06;99523.15;1712934;81;21574;-82
2021/01/09 11:48:54;;;;;;;37.63;14.53;;;;;;;0.30;79.90;99519.64;1755935;77;21329;31
2021/01/09 11:51:23;;;;;;;17.77;8.23;;;;;;;0.21;80.32;99523.25;1767039;78;21287;-72
2021/01/09 11:53:52;;;;;;;28.10;10.90;;;;;;;0.23;79.82;99520.32;1764367;77;21226;-81
2021/01/09 11:56:21;;;;;;;29.67;11.73;;;;;;;0.23;80.32;99516.91;1769419;78;21288;-81
2021/01/09 11:58:49;;;;;;;26.00;10.78;;;;;;;0.04;80.91;99473.02;1744408;79;21126;-80
2021/01/09 12:01:17;;;;;;;27.85;11.53;;;;;;;0.38;81.17;99511.73;1710726;81;21295;-82
2021/01/09 12:03:46;;;;;;;24.02;11.25;;;;;;;0.48;81.09;99516.64;1743534;81;21295;-83
2021/01/09 12:06:18;;;;;;;34.08;13.53;;;;;;;0.42;79.96;99516.50;1716338;78;21332;-84
2021/01/09 12:08:46;;;;;;;32.10;13.53;;;;;;;0.51;80.37;99509.44;1776888;79;21165;-86
2021/01/09 12:11:21;;;;;;;23.65;10.10;;;;;;;0.54;80.23;99505.25;1806800;78;21278;-87
2021/01/09 12:13:49;;;;;;;24.40;10.38;;;;;;;0.58;80.43;99502.35;1726290;78;21129;-81
2021/01/09 12:16:28;;;;;;;49.35;18.70;;;;;;;0.58;79.33;99505.77;1738025;82;21313;-81
2021/01/09 12:18:56;;;;;;;32.42;12.75;;;;;;;0.42;79.81;99504.10;1750934;80;21156;-81
2021/01/09 12:21:28;;;;;;;45.50;16.80;;;;;;;0.48;80.26;99511.52;1751902;82;21321;-81
2021/01/09 12:23:55;;;;;;;29.20;12.10;;;;;;;0.51;80.17;99514.13;1738208;80;21123;-81
2021/01/09 12:26:23;;;;;;;41.48;16.12;;;;;;;0.57;79.79;99513.41;1720325;79;21303;-82
2021/01/09 12:28:51;;;;;;;41.40;15.25;;;;;;;0.56;79.73;99516.39;1717470;83;21284;-83
2021/01/09 12:31:18;;;;;;;22.52;10.15;;;;;;;0.60;80.21;99518.59;1723321;80;21312;-82
2021/01/09 12:33:48;;;;;;;24.85;10.55;;;;;;;0.52;79.49;99517.58;1716507;82;21287;-83
2021/01/09 12:36:16;;;;;;;25.85;11.33;;;;;;;0.50;79.72;99530.33;1725405;80;21263;-85
2021/01/09 12:38:44;;;;;;;26.77;11.30;;;;;;;0.40;78.94;99528.39;1716554;79;21287;-85
2021/01/09 12:41:12;;;;;;;24.23;9.60;;;;;;;0.35;79.63;99533.80;1720870;79;21252;-83
2021/01/09 12:43:40;;;;;;;24.45;10.40;;;;;;;0.27;79.90;99530.21;1753795;78;21140;-82
2021/01/09 12:46:07;;;;;;;24.23;9.63;;;;;;;0.18;79.85;99521.50;1760997;79;21254;-80
2021/01/09 12:48:36;;;;;;;23.30;8.83;;;;;;;0.21;79.57;99526.23;1745724;79;21874;-79
2021/01/09 12:54:20;;;;;;;27.50;12.25;;;;;;;0.23;80.10;99509.23;1834254;77;21166;-82
2021/01/09 12:56:53;;;;;;;78.45;27.48;;;;;;;0.18;80.37;99506.16;1801159;78;21205;31
2021/01/09 12:59:20;;;;;;;78.85;28.12;;;;;;;0.23;80.38;99510.09;1734934;81;21252;-82
2021/01/09 13:01:56;;;;;;;148.07;47.83;;;;;;;0.16;80.19;99507.81;1754750;77;22896;31
2021/01/09 13:04:25;;;;;;;84.65;26.60;;;;;;;0.15;80.36;99516.30;1707177;80;21128;-81
2021/01/09 13:06:54;;;;;;;19.52;8.83;;;;;;;0.12;80.49;99513.69;1768295;81;21122;-81
2021/01/09 13:09:23;;;;;;;33.85;14.23;;;;;;;0.13;80.39;99524.77;1740723;80;21681;-82
2021/01/09 13:12:06;;;;;;;24.45;10.18;;;;;;;0.08;80.32;99514.45;1731482;79;21212;31
2021/01/09 13:14:48;;;;;;;25.70;10.82;;;;;;;0.11;80.62;99517.06;1759264;77;21509;31
2021/01/09 13:17:23;;;;;;;20.95;9.25;;;;;;;0.17;80.88;99529.98;1767318;79;21137;31
2021/01/09 13:19:51;;;;;;;31.42;13.95;;;;;;;0.21;80.63;99530.07;1765110;80;21269;-82
2021/01/09 13:22:18;;;;;;;22.48;9.08;;;;;;;0.19;80.13;99538.55;1765313;80;21324;-80
2021/01/09 13:24:47;;;;;;;20.55;9.40;;;;;;;0.19;80.36;99545.37;1771763;77;21262;-79
2021/01/09 13:27:16;;;;;;;18.32;8.78;;;;;;;0.14;79.49;99536.71;1728105;78;21185;-80
2021/01/09 13:29:44;;;;;;;21.57;8.65;;;;;;;0.09;79.26;99539.59;1784147;77;21196;-81
2021/01/09 13:32:13;;;;;;;22.22;9.53;;;;;;;0.04;79.56;99532.21;1750179;78;21289;31
2021/01/09 13:34:41;;;;;;;20.85;8.53;;;;;;;-0.01;80.05;99526.58;1747415;79;21258;-81
2021/01/09 13:37:09;;;;;;;21.37;10.03;;;;;;;0.02;80.59;99524.53;1736785;80;21140;-81
2021/01/09 13:39:38;;;;;;;21.33;9.10;;;;;;;0.02;80.31;99537.31;1735451;79;21293;-81
2021/01/09 13:42:06;;;;;;;27.37;11.48;;;;;;;-0.01;80.62;99532.11;1745775;78;21431;-81
2021/01/09 13:44:34;;;;;;;28.38;12.25;;;;;;;-0.03;80.72;99538.88;1758308;78;21327;-82
2021/01/09 13:47:01;;;;;;;20.70;8.35;;;;;;;-0.09;80.84;99549.81;1753319;79;21148;-82
2021/01/09 13:52:57;;;;;;;19.87;7.47;;;;;;;-0.21;81.08;99542.70;1753923;79;21121;-81
2021/01/09 13:55:25;;;;;;;18.82;7.55;;;;;;;-0.31;80.87;99553.94;1740789;78;21288;-80
2021/01/09 13:57:53;;;;;;;19.00;7.45;;;;;;;-0.43;80.97;99552.78;1714491;78;21320;-82
2021/01/09 14:00:21;;;;;;;20.17;7.10;;;;;;;-0.41;81.21;99552.41;1709692;78;21387;-79
2021/01/09 14:02:50;;;;;;;19.57;7.50;;;;;;;-0.48;81.13;99558.20;1765286;77;21240;-81
2021/01/09 14:05:40;;;;;;;19.27;7.80;;;;;;;-0.52;81.25;99565.72;1771777;78;21382;31
2021/01/09 14:08:08;;;;;;;22.20;7.85;;;;;;;-0.47;81.52;99570.12;1718410;81;21190;-82
2021/01/09 14:13:30;;;;;;;22.75;8.05;;;;;;;-0.40;81.41;99568.59;1722202;78;21534;-81
2021/01/09 14:16:17;;;;;;;21.52;8.80;;;;;;;-0.39;81.54;99570.34;1768376;77;21381;31
2021/01/09 14:22:02;;;;;;;27.65;9.38;;;;;;;-0.38;81.28;99575.88;1775462;78;21156;-81
2021/01/09 14:24:30;;;;;;;24.10;9.23;;;;;;;-0.52;81.26;99565.72;1776125;78;21749;-81
2021/01/09 14:32:49;;;;;;;20.40;8.30;;;;;;;-0.59;81.48;99572.78;1749653;77;21269;-83
2021/01/09 14:35:16;;;;;;;20.92;7.75;;;;;;;-0.62;81.71;99583.36;1746937;78;21268;-81
2021/01/09 14:37:44;;;;;;;19.32;7.83;;;;;;;-0.62;81.83;99580.81;1720372;78;21212;-81
2021/01/09 14:40:13;;;;;;;18.00;6.90;;;;;;;-0.61;81.92;99577.84;1725573;79;21232;-77
2021/01/09 14:42:41;;;;;;;20.55;8.28;;;;;;;-0.60;82.04;99580.83;1727128;83;21077;-83
2021/01/09 14:45:15;;;;;;;21.00;7.53;;;;;;;-0.59;81.43;99581.72;1731419;79;22885;31
2021/01/09 14:48:02;;;;;;;20.02;7.40;;;;;;;-0.79;81.91;99580.75;1737406;78;21206;31
2021/01/09 14:53:42;;;;;;;18.37;7.87;;;;;;;-0.87;81.85;99569.03;1685504;84;21134;-82
2021/01/09 14:56:10;;;;;;;19.60;7.70;;;;;;;-0.92;82.40;99574.41;1738283;79;21122;-80
2021/01/09 14:58:40;;;;;;;18.60;6.97;;;;;;;-0.89;82.43;99565.99;1746805;79;21493;-81
2021/01/09 15:04:48;;;;;;;17.30;6.28;;;;;;;-0.89;82.43;99576.20;1720877;81;21249;31
2021/01/09 15:13:45;;;;;;;18.65;7.08;;;;;;;-0.82;81.93;99594.30;1724615;83;21134;-80
2021/01/09 15:22:53;;;;;;;21.75;8.08;;;;;;;-1.14;82.29;99608.64;1741622;77;21112;-81
2021/01/09 15:25:22;;;;;;;18.17;7.15;;;;;;;-1.60;82.66;99590.66;1738583;77;21312;-81
2021/01/09 15:27:52;;;;;;;19.55;7.53;;;;;;;-1.46;82.42;99623.83;1733697;78;21184;-86
2021/01/09 15:37:58;;;;;;;21.48;8.90;;;;;;;-1.42;82.81;99631.17;1751946;78;21441;-79
2021/01/09 15:40:26;;;;;;;19.85;8.60;;;;;;;-1.49;83.16;99625.41;1792176;79;21114;-81
2021/01/09 15:42:54;;;;;;;25.15;8.45;;;;;;;-1.56;83.71;99617.98;1790768;79;21254;-81
2021/01/09 15:45:22;;;;;;;20.08;7.90;;;;;;;-1.60;83.46;99625.94;1785583;79;21255;-82
2021/01/09 15:47:51;;;;;;;17.75;7.03;;;;;;;-1.57;83.36;99629.02;1781018;79;21113;-82
2021/01/09 15:50:21;;;;;;;23.83;7.42;;;;;;;-1.57;83.16;99630.67;1793665;79;21271;-82
2021/01/09 15:52:49;;;;;;;20.85;8.08;;;;;;;-1.63;83.89;99637.75;1786455;79;21128;-82
2021/01/09 15:55:17;;;;;;;15.58;6.87;;;;;;;-1.60;83.64;99638.69;1806006;79;21121;-82
2021/01/09 15:57:46;;;;;;;21.80;9.18;;;;;;;-1.63;83.64;99644.13;1796099;79;21251;-83
2021/01/09 16:00:19;;;;;;;18.07;7.67;;;;;;;-1.60;83.78;99645.06;1788749;79;21157;-82
2021/01/09 16:02:47;;;;;;;21.93;7.80;;;;;;;-1.54;83.83;99634.61;1789336;79;21296;-82
2021/01/09 16:05:16;;;;;;;27.73;9.10;;;;;;;-1.51;83.72;99628.31;1750282;79;21518;-81
2021/01/09 16:07:44;;;;;;;25.68;8.33;;;;;;;-1.48;83.81;99631.84;1736390;79;21264;-82
2021/01/09 16:10:12;;;;;;;19.75;8.05;;;;;;;-1.44;83.88;99618.36;1746421;79;21179;-83
2021/01/09 16:12:52;;;;;;;22.65;8.70;;;;;;;-1.37;83.67;99616.00;1751529;79;21458;31
2021/01/09 16:25:02;;;;;;;22.67;8.25;;;;;;;-1.36;83.41;99651.77;1670885;83;21363;-81
2021/01/09 16:30:46;;;;;;;27.07;8.88;;;;;;;-1.31;83.14;99657.03;1763193;76;21127;-81
2021/01/09 16:33:19;;;;;;;27.82;10.23;;;;;;;-1.36;83.16;99660.70;1747126;76;21223;-79
2021/01/09 16:45:40;;;;;;;22.10;8.45;;;;;;;-1.32;83.25;99669.32;1754903;77;21189;-82
2021/01/09 16:48:08;;;;;;;24.87;9.78;;;;;;;-1.38;83.21;99675.50;1748255;78;21183;-83
2021/01/09 16:50:36;;;;;;;21.75;9.30;;;;;;;-1.35;83.47;99683.23;1726945;79;21255;-82
2021/01/09 16:53:04;;;;;;;28.40;10.45;;;;;;;-1.34;83.34;99679.47;1762095;76;21302;-80
2021/01/09 16:55:32;;;;;;;26.23;10.13;;;;;;;-1.35;83.43;99666.66;1747755;79;21219;-82
2021/01/09 16:58:00;;;;;;;38.55;13.43;;;;;;;-1.32;83.53;99668.04;1732753;80;21275;-82
2021/01/09 17:00:30;;;;;;;33.70;13.13;;;;;;;-1.31;83.23;99671.06;1758965;80;21241;-82
2021/01/09 17:02:58;;;;;;;29.37;10.43;;;;;;;-1.32;83.24;99662.52;1764336;79;21106;-80
2021/01/09 17:05:31;;;;;;;28.87;10.97;;;;;;;-1.33;83.42;99667.57;1778924;76;21209;31
2021/01/09 17:08:01;;;;;;;;;;;;;;;-1.30;83.60;99672.78;1715180;77;21302;31
2021/01/09 17:16:50;;;;;;;32.20;10.08;;;;;;;-1.49;83.33;99657.28;1709721;78;22355;31
2021/01/09 17:19:19;;;;;;;28.45;10.20;;;;;;;-1.50;83.36;99665.35;1760313;80;21455;-84
2021/01/09 17:21:50;;;;;;;25.97;9.43;;;;;;;-1.48;83.46;99644.59;1764265;80;21457;-84
2021/01/09 17:27:28;;;;;;;22.85;8.03;;;;;;;-1.43;83.46;99666.44;1745402;79;21149;-84
2021/01/09 17:33:06;;;;;;;24.65;7.90;;;;;;;-1.44;83.54;99651.94;1723831;78;22870;-80
2021/01/09 17:35:39;;;;;;;22.25;8.75;;;;;;;-1.39;83.54;99660.61;1719739;79;21200;-77
2021/01/09 17:38:14;;;;;;;29.90;9.93;;;;;;;-1.36;83.56;99644.11;1776682;77;21330;31
2021/01/09 17:40:42;;;;;;;24.15;8.33;;;;;;;-1.34;83.47;99656.51;1724661;79;21259;-81
2021/01/09 17:43:10;;;;;;;23.38;10.10;;;;;;;-1.33;83.26;99650.98;1732762;78;21282;-80
2021/01/09 17:45:40;;;;;;;24.87;9.93;;;;;;;-1.40;82.88;99659.72;1765052;78;21091;-81
2021/01/09 17:51:18;;;;;;;26.00;9.38;;;;;;;-1.59;82.95;99674.00;1724825;79;21193;-84
2021/01/09 17:53:46;;;;;;;28.73;9.70;;;;;;;-1.60;82.98;99663.33;1730884;77;21258;-80
2021/01/09 17:56:14;;;;;;;30.05;10.60;;;;;;;-1.66;83.04;99660.16;1731051;78;21144;-81
2021/01/09 17:58:42;;;;;;;27.17;9.05;;;;;;;-1.67;83.43;99673.74;1724430;80;21245;-82
2021/01/09 18:01:10;;;;;;;28.27;9.98;;;;;;;-1.65;83.52;99663.57;1722560;79;21250;-82
2021/01/09 18:03:50;;;;;;;24.27;8.75;;;;;;;-1.64;83.43;99680.61;1725738;80;21362;31
2021/01/09 18:09:29;;;;;;;30.85;10.63;;;;;;;-1.62;83.41;99681.53;1725029;78;21150;-84
2021/01/09 18:15:34;;;;;;;25.92;9.58;;;;;;;-1.70;83.40;99691.89;1744253;79;22863;31
2021/01/09 18:18:14;;;;;;;43.30;11.73;;;;;;;-1.71;83.83;99698.67;1744039;77;21302;31
2021/01/09 18:20:42;;;;;;;29.30;9.80;;;;;;;-1.73;83.70;99688.84;1723177;79;21261;-83
2021/01/09 18:26:23;;;;;;;32.33;10.53;;;;;;;-1.74;83.74;99687.09;1732771;79;21189;-83
2021/01/09 18:28:56;;;;;;;37.00;10.50;;;;;;;-1.71;83.88;99688.48;1774419;79;21563;-84
2021/01/09 18:31:26;;;;;;;33.25;10.88;;;;;;;-1.69;83.99;99684.30;1822823;78;21314;-83
2021/01/09 18:37:12;;;;;;;32.88;10.70;;;;;;;-1.62;83.67;99700.66;1694040;78;21200;-81
2021/01/09 18:39:42;;;;;;;29.05;10.40;;;;;;;-1.68;83.43;99695.36;1737454;79;21347;-82
2021/01/09 18:42:13;;;;;;;29.65;10.10;;;;;;;-1.71;83.21;99696.52;1743081;81;21268;-81
2021/01/09 18:44:41;;;;;;;26.42;9.68;;;;;;;-1.82;83.35;99698.30;1750023;81;21234;-83
2021/01/09 18:47:13;;;;;;;27.55;9.95;;;;;;;-1.81;84.02;99694.95;1738247;78;21228;-84
2021/01/09 18:49:42;;;;;;;26.82;9.40;;;;;;;-1.77;84.07;99683.56;1733328;80;21187;-84
2021/01/09 18:52:11;;;;;;;27.48;9.23;;;;;;;-1.74;84.09;99692.19;1726424;79;21247;-82
2021/01/09 18:55:00;;;;;;;30.20;10.43;;;;;;;-1.73;83.90;99698.14;1733626;79;21235;31
2021/01/09 18:57:28;;;;;;;30.45;10.50;;;;;;;-1.73;83.90;99698.14;1717621;79;21272;-83
2021/01/09 19:06:19;;;;;;;27.67;10.00;;;;;;;-1.71;83.71;99701.61;1748103;77;21134;-83
2021/01/09 19:09:14;;;;;;;31.13;11.00;;;;;;;-1.76;83.39;99704.02;1740927;78;21157;31
2021/01/09 19:11:55;;;;;;;31.40;10.97;;;;;;;-1.83;83.73;99686.38;1740677;81;21165;31
2021/01/09 19:14:24;;;;;;;26.10;8.98;;;;;;;-1.92;83.63;99679.69;1679032;83;21113;-83
2021/01/09 19:20:20;;;;;;;23.57;10.03;;;;;;;-1.84;84.27;99667.20;1737135;79;21180;31
2021/01/09 19:22:53;;;;;;;29.95;10.93;;;;;;;-1.86;84.33;99673.94;1654826;83;21142;31
2021/01/09 19:28:47;;;;;;;24.60;10.05;;;;;;;-1.81;84.60;99673.28;1707973;80;21184;31
2021/01/09 19:31:17;;;;;;;27.35;9.25;;;;;;;-1.82;84.38;99677.05;1743631;78;21237;-82
2021/01/09 19:36:54;;;;;;;27.60;10.82;;;;;;;-1.81;84.44;99682.20;1718754;80;21383;-82
2021/01/09 19:39:24;;;;;;;28.17;9.68;;;;;;;-1.76;84.33;99684.04;1704119;79;21293;-80
2021/01/09 19:45:03;;;;;;;32.08;10.20;;;;;;;-1.75;84.29;99690.85;1742591;78;21164;-82
2021/01/09 19:47:44;;;;;;;194.32;52.60;;;;;;;-1.74;84.41;99686.23;1741532;78;21314;31
2021/01/09 19:50:33;;;;;;;175.32;52.70;;;;;;;-1.71;84.18;99679.94;1761457;77;22919;31
2021/01/09 19:53:22;;;;;;;38.30;16.12;;;;;;;-1.71;84.31;99691.41;1791254;76;22714;31
2021/01/09 19:56:10;;;;;;;56.68;19.48;;;;;;;-1.70;84.40;99688.06;1746778;78;21564;31
2021/01/09 19:58:42;;;;;;;42.15;15.30;;;;;;;-1.65;84.40;99710.73;1746250;77;21327;-80
2021/01/09 20:01:11;;;;;;;30.88;11.30;;;;;;;-1.65;84.26;99705.25;1782518;77;21137;-83